createdAt,value
2017-06-06T00:00:36.153Z,0
2017-06-06T00:01:35.928Z,0
2017-06-06T00:02:35.651Z,0
2017-06-06T00:03:35.684Z,0
2017-06-06T00:04:35.711Z,0
2017-06-06T00:05:35.673Z,0
2017-06-06T00:06:35.766Z,0
2017-06-06T00:07:35.789Z,0
2017-06-06T00:08:36.132Z,0
2017-06-06T00:09:35.864Z,0
2017-06-06T00:10:36.132Z,0
2017-06-06T00:11:36.230Z,0
2017-06-06T00:12:36.254Z,0
2017-06-06T00:13:36.279Z,0
2017-06-06T00:14:35.992Z,0
2017-06-06T00:15:36.281Z,0
2017-06-06T00:16:36.050Z,0
2017-06-06T00:17:35.763Z,0
2017-06-06T00:18:36.102Z,0
2017-06-06T00:19:36.452Z,0
2017-06-06T00:20:36.416Z,0
2017-06-06T00:21:36.201Z,0
2017-06-06T00:22:36.227Z,0
2017-06-06T00:23:36.571Z,0
2017-06-06T00:24:36.283Z,0
2017-06-06T00:25:36.256Z,0
2017-06-06T00:26:36.343Z,0
2017-06-06T00:27:36.371Z,0
2017-06-06T00:28:35.783Z,0
2017-06-06T00:29:36.745Z,0
2017-06-06T00:30:37.030Z,0
2017-06-06T00:31:36.185Z,0
2017-06-06T00:32:36.842Z,0
2017-06-06T00:33:36.243Z,0
2017-06-06T00:34:36.884Z,0
2017-06-06T00:35:36.185Z,0
2017-06-06T00:36:36.325Z,0
2017-06-06T00:37:36.386Z,0
2017-06-06T00:38:36.692Z,0
2017-06-06T00:39:37.041Z,0
2017-06-06T00:40:37.341Z,0
2017-06-06T00:41:37.101Z,0
2017-06-06T00:42:37.127Z,0
2017-06-06T00:43:36.845Z,0
2017-06-06T00:44:36.875Z,0
2017-06-06T00:45:37.462Z,0
2017-06-06T00:46:36.619Z,0
2017-06-06T00:47:36.960Z,0
2017-06-06T00:48:37.300Z,0
2017-06-06T00:49:37.008Z,0
2017-06-06T00:50:37.049Z,0
2017-06-06T00:51:37.014Z,0
2017-06-06T00:52:37.114Z,0
2017-06-06T00:53:37.439Z,0
2017-06-06T00:54:37.160Z,0
2017-06-06T00:55:37.189Z,0
2017-06-06T00:56:36.841Z,0
2017-06-06T00:57:37.551Z,0
2017-06-06T00:58:36.971Z,0
2017-06-06T00:59:37.305Z,0
2017-06-06T01:00:37.334Z,0
2017-06-06T01:01:37.567Z,0
2017-06-06T01:02:37.378Z,0
2017-06-06T01:03:37.415Z,0
2017-06-06T01:04:37.444Z,0
2017-06-06T01:05:37.509Z,0
2017-06-06T01:06:37.443Z,0
2017-06-06T01:07:37.226Z,0
2017-06-06T01:08:37.570Z,0
2017-06-06T01:09:37.918Z,0
2017-06-06T01:10:37.321Z,0
2017-06-06T01:11:37.906Z,0
2017-06-06T01:12:38.040Z,0
2017-06-06T01:13:37.090Z,0
2017-06-06T01:14:37.425Z,0
2017-06-06T01:15:38.085Z,0
2017-06-06T01:16:38.040Z,0
2017-06-06T01:17:38.167Z,0
2017-06-06T01:18:38.168Z,0
2017-06-06T01:19:38.210Z,0
2017-06-06T01:20:38.226Z,0
2017-06-06T01:21:38.514Z,0
2017-06-06T01:22:37.963Z,0
2017-06-06T01:23:38.009Z,0
2017-06-06T01:24:38.037Z,0
2017-06-06T01:25:38.062Z,0
2017-06-06T01:26:38.382Z,0
2017-06-06T01:27:37.840Z,0
2017-06-06T01:28:38.463Z,0
2017-06-06T01:29:38.524Z,0
2017-06-06T01:30:38.206Z,0
2017-06-06T01:31:38.545Z,0
2017-06-06T01:32:38.267Z,0
2017-06-06T01:33:38.292Z,0
2017-06-06T01:34:38.325Z,0
2017-06-06T01:35:38.037Z,0
2017-06-06T01:36:38.065Z,0
2017-06-06T01:37:38.095Z,0
2017-06-06T01:38:38.429Z,0
2017-06-06T01:39:38.786Z,0
2017-06-06T01:40:38.498Z,0
2017-06-06T01:41:38.214Z,0
2017-06-06T01:42:38.551Z,0
2017-06-06T01:43:38.901Z,0
2017-06-06T01:44:38.924Z,0
2017-06-06T01:45:38.314Z,0
2017-06-06T01:46:38.631Z,0
2017-06-06T01:47:39.020Z,0
2017-06-06T01:48:38.736Z,0
2017-06-06T01:49:39.069Z,0
2017-06-06T01:50:38.477Z,0
2017-06-06T01:51:38.814Z,0
2017-06-06T01:52:39.156Z,0
2017-06-06T01:53:38.878Z,0
2017-06-06T01:54:38.589Z,0
2017-06-06T01:55:39.244Z,0
2017-06-06T01:56:39.268Z,0
2017-06-06T01:57:39.300Z,0
2017-06-06T01:58:39.328Z,0
2017-06-06T01:59:39.362Z,0
2017-06-06T02:00:38.449Z,0
2017-06-06T02:01:39.655Z,0
2017-06-06T02:02:38.819Z,0
2017-06-06T02:03:39.473Z,0
2017-06-06T02:04:39.507Z,0
2017-06-06T02:05:39.540Z,0
2017-06-06T02:06:39.250Z,0
2017-06-06T02:07:39.596Z,0
2017-06-06T02:08:39.621Z,0
2017-06-06T02:09:39.332Z,0
2017-06-06T02:10:39.371Z,0
2017-06-06T02:11:39.648Z,0
2017-06-06T02:12:39.119Z,0
2017-06-06T02:13:39.452Z,0
2017-06-06T02:14:39.797Z,0
2017-06-06T02:15:39.511Z,0
2017-06-06T02:16:40.102Z,0
2017-06-06T02:17:39.884Z,0
2017-06-06T02:18:39.909Z,0
2017-06-06T02:19:39.937Z,0
2017-06-06T02:20:39.030Z,0
2017-06-06T02:21:39.624Z,0
2017-06-06T02:22:40.027Z,0
2017-06-06T02:23:39.734Z,0
2017-06-06T02:24:39.790Z,0
2017-06-06T02:25:40.119Z,0
2017-06-06T02:26:40.392Z,0
2017-06-06T02:27:40.173Z,0
2017-06-06T02:28:40.191Z,0
2017-06-06T02:29:40.230Z,0
2017-06-06T02:30:40.256Z,0
2017-06-06T02:31:40.544Z,0
2017-06-06T02:32:39.997Z,0
2017-06-06T02:33:40.029Z,0
2017-06-06T02:34:40.378Z,0
2017-06-06T02:35:40.091Z,0
2017-06-06T02:36:40.372Z,0
2017-06-06T02:37:39.840Z,0
2017-06-06T02:38:40.494Z,0
2017-06-06T02:39:40.519Z,0
2017-06-06T02:40:40.239Z,0
2017-06-06T02:41:40.841Z,0
2017-06-06T02:42:40.606Z,0
2017-06-06T02:43:39.997Z,0
2017-06-06T02:44:40.662Z,0
2017-06-06T02:45:40.695Z,0
2017-06-06T02:46:40.980Z,0
2017-06-06T02:47:40.431Z,0
2017-06-06T02:48:40.781Z,0
2017-06-06T02:49:40.810Z,0
2017-06-06T02:50:40.527Z,0
2017-06-06T02:51:41.124Z,0
2017-06-06T02:52:40.897Z,0
2017-06-06T02:53:40.928Z,0
2017-06-06T02:54:40.961Z,0
2017-06-06T02:55:40.664Z,0
2017-06-06T02:56:41.276Z,0
2017-06-06T02:57:40.733Z,0
2017-06-06T02:58:40.768Z,0
2017-06-06T02:59:41.094Z,0
2017-06-06T03:00:41.131Z,0
2017-06-06T03:01:41.403Z,0
2017-06-06T03:02:40.869Z,0
2017-06-06T03:03:41.210Z,0
2017-06-06T03:04:41.243Z,0
2017-06-06T03:05:41.269Z,0
2017-06-06T03:06:41.555Z,0
2017-06-06T03:07:41.325Z,0
2017-06-06T03:08:41.357Z,0
2017-06-06T03:09:40.758Z,0
2017-06-06T03:10:41.092Z,0
2017-06-06T03:11:41.384Z,0
2017-06-06T03:12:41.164Z,0
2017-06-06T03:13:41.497Z,0
2017-06-06T03:14:41.214Z,0
2017-06-06T03:15:41.546Z,0
2017-06-06T03:16:41.524Z,0
2017-06-06T03:17:41.310Z,0
2017-06-06T03:18:40.714Z,0
2017-06-06T03:19:41.359Z,0
2017-06-06T03:20:41.078Z,0
2017-06-06T03:21:41.040Z,0
2017-06-06T03:22:41.760Z,0
2017-06-06T03:23:41.474Z,0
2017-06-06T03:24:41.507Z,0
2017-06-06T03:25:41.847Z,0
2017-06-06T03:26:41.813Z,0
2017-06-06T03:27:41.278Z,0
2017-06-06T03:28:41.613Z,0
2017-06-06T03:29:41.655Z,0
2017-06-06T03:30:41.364Z,0
2017-06-06T03:31:41.913Z,0
2017-06-06T03:32:42.040Z,0
2017-06-06T03:33:42.089Z,0
2017-06-06T03:34:41.787Z,0
2017-06-06T03:35:42.139Z,0
2017-06-06T03:36:42.100Z,0
2017-06-06T03:37:41.572Z,0
2017-06-06T03:38:41.597Z,0
2017-06-06T03:39:42.251Z,0
2017-06-06T03:40:41.653Z,0
2017-06-06T03:41:42.551Z,0
2017-06-06T03:42:42.335Z,0
2017-06-06T03:43:42.050Z,0
2017-06-06T03:44:42.390Z,0
2017-06-06T03:45:42.103Z,0
2017-06-06T03:46:42.704Z,0
2017-06-06T03:47:42.480Z,0
2017-06-06T03:48:42.189Z,0
2017-06-06T03:49:42.538Z,0
2017-06-06T03:50:42.571Z,0
2017-06-06T03:51:42.224Z,0
2017-06-06T03:52:42.312Z,0
2017-06-06T03:53:42.333Z,0
2017-06-06T03:54:42.679Z,0
2017-06-06T03:55:41.772Z,0
2017-06-06T03:56:42.984Z,0
2017-06-06T03:57:42.453Z,0
2017-06-06T03:58:42.793Z,0
2017-06-06T03:59:42.201Z,0
2017-06-06T04:00:42.231Z,0
2017-06-06T04:01:42.820Z,0
2017-06-06T04:02:42.597Z,0
2017-06-06T04:03:42.934Z,0
2017-06-06T04:04:42.027Z,0
2017-06-06T04:05:42.995Z,0
2017-06-06T04:06:42.964Z,0
2017-06-06T04:07:42.737Z,0
2017-06-06T04:08:43.086Z,0
2017-06-06T04:09:42.811Z,0
2017-06-06T04:10:42.516Z,0
2017-06-06T04:11:43.416Z,0
2017-06-06T04:12:42.881Z,0
2017-06-06T04:13:42.911Z,0
2017-06-06T04:14:43.263Z,0
2017-06-06T04:15:43.289Z,0
2017-06-06T04:16:43.561Z,0
2017-06-06T04:17:43.332Z,0
2017-06-06T04:18:43.378Z,0
2017-06-06T04:19:43.090Z,0
2017-06-06T04:20:43.439Z,5
2017-06-06T04:21:43.393Z,5
2017-06-06T04:22:42.856Z,5
2017-06-06T04:23:42.894Z,5
2017-06-06T04:24:43.529Z,5
2017-06-06T04:25:43.572Z,5
2017-06-06T04:26:43.536Z,5
2017-06-06T04:27:43.317Z,5
2017-06-06T04:28:43.646Z,5
2017-06-06T04:29:43.375Z,5
2017-06-06T04:30:43.411Z,5
2017-06-06T04:31:43.381Z,5
2017-06-06T04:32:43.449Z,5
2017-06-06T04:33:43.486Z,5
2017-06-06T04:34:43.527Z,5
2017-06-06T04:35:43.885Z,5
2017-06-06T04:36:43.465Z,5
2017-06-06T04:37:43.924Z,5
2017-06-06T04:38:43.954Z,5
2017-06-06T04:39:43.667Z,5
2017-06-06T04:40:44.007Z,5
2017-06-06T04:41:44.277Z,5
2017-06-06T04:42:44.117Z,5
2017-06-06T04:43:44.093Z,5
2017-06-06T04:44:44.115Z,5
2017-06-06T04:45:44.148Z,5
2017-06-06T04:46:44.450Z,5
2017-06-06T04:47:43.926Z,5
2017-06-06T04:48:43.918Z,5
2017-06-06T04:49:43.955Z,5
2017-06-06T04:50:44.295Z,5
2017-06-06T04:51:44.573Z,5
2017-06-06T04:52:44.360Z,5
2017-06-06T04:53:44.070Z,5
2017-06-06T04:54:44.104Z,5
2017-06-06T04:55:44.440Z,5
2017-06-06T04:56:44.418Z,5
2017-06-06T04:57:44.181Z,0
2017-06-06T04:58:43.899Z,0
2017-06-06T04:59:44.243Z,0
2017-06-06T05:00:44.272Z,0
2017-06-06T05:01:44.549Z,0
2017-06-06T05:02:44.018Z,5
2017-06-06T05:03:44.362Z,5
2017-06-06T05:04:44.703Z,0
2017-06-06T05:05:44.409Z,0
2017-06-06T05:06:45.019Z,0
2017-06-06T05:07:44.188Z,0
2017-06-06T05:08:44.192Z,0
2017-06-06T05:09:44.524Z,0
2017-06-06T05:10:44.289Z,0
2017-06-06T05:11:44.485Z,0
2017-06-06T05:12:44.922Z,0
2017-06-06T05:13:44.332Z,0
2017-06-06T05:14:44.983Z,5
2017-06-06T05:15:45.019Z,5
2017-06-06T05:16:44.981Z,0
2017-06-06T05:17:44.450Z,0
2017-06-06T05:18:45.106Z,0
2017-06-06T05:19:44.816Z,0
2017-06-06T05:20:44.856Z,5
2017-06-06T05:21:45.437Z,5
2017-06-06T05:22:44.905Z,5
2017-06-06T05:23:44.943Z,5
2017-06-06T05:24:45.288Z,5
2017-06-06T05:25:44.990Z,10
2017-06-06T05:26:44.961Z,10
2017-06-06T05:27:45.366Z,10
2017-06-06T05:28:44.765Z,10
2017-06-06T05:29:45.136Z,10
2017-06-06T05:30:45.452Z,10
2017-06-06T05:31:45.409Z,10
2017-06-06T05:32:45.505Z,5
2017-06-06T05:33:45.535Z,5
2017-06-06T05:34:44.935Z,5
2017-06-06T05:35:45.592Z,5
2017-06-06T05:36:45.865Z,5
2017-06-06T05:37:45.370Z,5
2017-06-06T05:38:45.371Z,5
2017-06-06T05:39:45.388Z,0
2017-06-06T05:40:45.736Z,0
2017-06-06T05:41:45.700Z,0
2017-06-06T05:42:45.486Z,0
2017-06-06T05:43:45.198Z,0
2017-06-06T05:44:45.860Z,0
2017-06-06T05:45:45.569Z,0
2017-06-06T05:46:45.533Z,0
2017-06-06T05:47:45.938Z,0
2017-06-06T05:48:45.649Z,0
2017-06-06T05:49:45.368Z,0
2017-06-06T05:50:46.024Z,0
2017-06-06T05:51:45.682Z,0
2017-06-06T05:52:45.467Z,0
2017-06-06T05:53:46.111Z,0
2017-06-06T05:54:45.823Z,0
2017-06-06T05:55:45.865Z,0
2017-06-06T05:56:45.825Z,0
2017-06-06T05:57:45.613Z,0
2017-06-06T05:58:45.975Z,0
2017-06-06T05:59:45.976Z,0
2017-06-06T06:00:45.688Z,5
2017-06-06T06:01:45.974Z,5
2017-06-06T06:02:46.374Z,5
2017-06-06T06:03:46.416Z,5
2017-06-06T06:04:46.459Z,5
2017-06-06T06:05:46.468Z,5
2017-06-06T06:06:46.429Z,5
2017-06-06T06:07:46.211Z,5
2017-06-06T06:08:46.235Z,5
2017-06-06T06:09:46.568Z,5
2017-06-06T06:10:46.605Z,5
2017-06-06T06:11:46.529Z,5
2017-06-06T06:12:46.657Z,5
2017-06-06T06:13:46.376Z,5
2017-06-06T06:14:46.408Z,5
2017-06-06T06:15:46.741Z,5
2017-06-06T06:16:47.025Z,5
2017-06-06T06:17:46.497Z,5
2017-06-06T06:18:46.529Z,5
2017-06-06T06:19:46.538Z,5
2017-06-06T06:20:46.272Z,5
2017-06-06T06:21:46.857Z,5
2017-06-06T06:22:46.648Z,5
2017-06-06T06:23:46.983Z,5
2017-06-06T06:24:46.699Z,5
2017-06-06T06:25:47.029Z,5
2017-06-06T06:26:46.958Z,5
2017-06-06T06:27:46.778Z,5
2017-06-06T06:28:46.492Z,5
2017-06-06T06:29:46.832Z,5
2017-06-06T06:30:47.176Z,5
2017-06-06T06:31:47.142Z,5
2017-06-06T06:32:46.927Z,5
2017-06-06T06:33:46.635Z,5
2017-06-06T06:34:46.976Z,5
2017-06-06T06:35:47.008Z,5
2017-06-06T06:36:47.594Z,5
2017-06-06T06:37:47.383Z,5
2017-06-06T06:38:47.095Z,5
2017-06-06T06:39:46.804Z,5
2017-06-06T06:40:47.152Z,10
2017-06-06T06:41:47.737Z,10
2017-06-06T06:42:47.554Z,10
2017-06-06T06:43:47.547Z,10
2017-06-06T06:44:46.967Z,10
2017-06-06T06:45:47.620Z,10
2017-06-06T06:46:47.581Z,10
2017-06-06T06:47:46.408Z,10
2017-06-06T06:48:47.387Z,15
2017-06-06T06:49:46.788Z,10
2017-06-06T06:50:47.444Z,10
2017-06-06T06:51:48.042Z,10
2017-06-06T06:52:47.837Z,10
2017-06-06T06:53:47.531Z,10
2017-06-06T06:54:47.560Z,10
2017-06-06T06:55:47.901Z,10
2017-06-06T06:56:47.869Z,15
2017-06-06T06:57:47.651Z,10
2017-06-06T06:58:47.991Z,10
2017-06-06T06:59:48.032Z,10
2017-06-06T07:00:48.045Z,10
2017-06-06T07:01:48.009Z,10
2017-06-06T07:02:47.471Z,10
2017-06-06T07:03:47.815Z,10
2017-06-06T07:04:47.850Z,10
2017-06-06T07:05:48.188Z,10
2017-06-06T07:06:48.149Z,10
2017-06-06T07:07:47.935Z,10
2017-06-06T07:08:47.963Z,10
2017-06-06T07:09:48.305Z,10
2017-06-06T07:10:48.023Z,10
2017-06-06T07:11:48.289Z,5
2017-06-06T07:12:48.094Z,5
2017-06-06T07:13:48.407Z,5
2017-06-06T07:14:47.828Z,5
2017-06-06T07:15:47.854Z,5
2017-06-06T07:16:48.769Z,10
2017-06-06T07:17:48.210Z,5
2017-06-06T07:18:48.292Z,10
2017-06-06T07:19:48.287Z,15
2017-06-06T07:20:48.313Z,10
2017-06-06T07:21:48.894Z,10
2017-06-06T07:22:48.055Z,15
2017-06-06T07:23:48.712Z,15
2017-06-06T07:24:48.436Z,15
2017-06-06T07:25:48.448Z,10
2017-06-06T07:26:48.994Z,10
2017-06-06T07:27:48.830Z,10
2017-06-06T07:28:48.856Z,10
2017-06-06T07:29:48.254Z,15
2017-06-06T07:30:48.599Z,10
2017-06-06T07:31:49.198Z,15
2017-06-06T07:32:48.953Z,10
2017-06-06T07:33:48.995Z,20
2017-06-06T07:34:49.016Z,15
2017-06-06T07:35:48.424Z,20
2017-06-06T07:36:49.026Z,15
2017-06-06T07:37:48.807Z,15
2017-06-06T07:38:48.835Z,10
2017-06-06T07:39:49.168Z,10
2017-06-06T07:40:48.274Z,5
2017-06-06T07:41:49.117Z,5
2017-06-06T07:42:48.951Z,5
2017-06-06T07:43:49.274Z,5
2017-06-06T07:44:49.003Z,10
2017-06-06T07:45:49.024Z,10
2017-06-06T07:46:49.353Z,10
2017-06-06T07:47:48.145Z,5
2017-06-06T07:48:48.799Z,10
2017-06-06T07:49:48.832Z,5
2017-06-06T07:50:49.488Z,5
2017-06-06T07:51:49.093Z,5
2017-06-06T07:52:49.539Z,10
2017-06-06T07:53:48.631Z,10
2017-06-06T07:54:48.979Z,10
2017-06-06T07:55:49.320Z,15
2017-06-06T07:56:49.906Z,10
2017-06-06T07:57:49.366Z,15
2017-06-06T07:58:49.714Z,15
2017-06-06T07:59:49.419Z,15
2017-06-06T08:00:49.460Z,10
2017-06-06T08:01:50.041Z,10
2017-06-06T08:02:49.518Z,15
2017-06-06T08:03:49.550Z,10
2017-06-06T08:04:49.259Z,10
2017-06-06T08:05:49.913Z,10
2017-06-06T08:06:49.887Z,10
2017-06-06T08:07:49.666Z,10
2017-06-06T08:08:49.999Z,5
2017-06-06T08:09:49.718Z,5
2017-06-06T08:10:49.436Z,5
2017-06-06T08:11:49.717Z,10
2017-06-06T08:12:49.490Z,5
2017-06-06T08:13:50.146Z,10
2017-06-06T08:14:50.172Z,10
2017-06-06T08:15:50.208Z,15
2017-06-06T08:16:50.178Z,15
2017-06-06T08:17:49.957Z,25
2017-06-06T08:18:50.287Z,20
2017-06-06T08:19:50.312Z,20
2017-06-06T08:20:49.721Z,25
2017-06-06T08:21:50.633Z,20
2017-06-06T08:22:50.405Z,20
2017-06-06T08:23:50.423Z,20
2017-06-06T08:24:50.146Z,10
2017-06-06T08:25:50.185Z,10
2017-06-06T08:26:50.405Z,10
2017-06-06T08:27:49.918Z,10
2017-06-06T08:28:50.261Z,15
2017-06-06T08:29:50.608Z,15
2017-06-06T08:30:50.317Z,15
2017-06-06T08:31:50.597Z,20
2017-06-06T08:32:50.694Z,15
2017-06-06T08:33:50.407Z,25
2017-06-06T08:34:50.432Z,30
2017-06-06T08:35:50.467Z,30
2017-06-06T08:36:50.993Z,30
2017-06-06T08:37:50.837Z,30
2017-06-06T08:38:50.235Z,30
2017-06-06T08:39:50.909Z,40
2017-06-06T08:40:50.608Z,50
2017-06-06T08:41:50.564Z,45
2017-06-06T08:42:50.969Z,35
2017-06-06T08:43:50.694Z,30
2017-06-06T08:44:50.723Z,25
2017-06-06T08:45:50.752Z,20
2017-06-06T08:46:51.349Z,20
2017-06-06T08:47:50.493Z,25
2017-06-06T08:48:50.838Z,25
2017-06-06T08:49:50.244Z,20
2017-06-06T08:50:50.884Z,25
2017-06-06T08:51:51.212Z,45
2017-06-06T08:52:50.950Z,45
2017-06-06T08:53:51.280Z,35
2017-06-06T08:54:51.007Z,40
2017-06-06T08:55:51.032Z,40
2017-06-06T08:56:51.316Z,40
2017-06-06T08:57:50.774Z,40
2017-06-06T08:58:50.822Z,35
2017-06-06T08:59:50.525Z,30
2017-06-06T09:00:51.488Z,30
2017-06-06T09:01:51.458Z,30
2017-06-06T09:02:51.544Z,30
2017-06-06T09:03:51.587Z,25
2017-06-06T09:04:51.600Z,30
2017-06-06T09:05:51.639Z,35
2017-06-06T09:06:51.282Z,30
2017-06-06T09:07:51.066Z,30
2017-06-06T09:08:51.417Z,30
2017-06-06T09:09:51.435Z,35
2017-06-06T09:10:51.469Z,40
2017-06-06T09:11:51.732Z,40
2017-06-06T09:12:51.206Z,40
2017-06-06T09:13:51.551Z,40
2017-06-06T09:14:51.890Z,40
2017-06-06T09:15:51.913Z,40
2017-06-06T09:16:51.896Z,40
2017-06-06T09:17:51.661Z,30
2017-06-06T09:18:51.694Z,35
2017-06-06T09:19:52.031Z,40
2017-06-06T09:20:51.748Z,40
2017-06-06T09:21:52.025Z,40
2017-06-06T09:22:51.808Z,30
2017-06-06T09:23:51.554Z,35
2017-06-06T09:24:52.187Z,30
2017-06-06T09:25:52.204Z,30
2017-06-06T09:26:52.173Z,40
2017-06-06T09:27:52.257Z,30
2017-06-06T09:28:51.985Z,30
2017-06-06T09:29:51.692Z,25
2017-06-06T09:30:52.344Z,30
2017-06-06T09:31:52.272Z,35
2017-06-06T09:32:52.100Z,40
2017-06-06T09:33:52.133Z,45
2017-06-06T09:34:52.471Z,45
2017-06-06T09:35:52.500Z,35
2017-06-06T09:36:52.784Z,35
2017-06-06T09:37:52.545Z,30
2017-06-06T09:38:52.275Z,30
2017-06-06T09:39:52.611Z,30
2017-06-06T09:40:52.644Z,30
2017-06-06T09:41:52.600Z,35
2017-06-06T09:42:52.385Z,35
2017-06-06T09:43:52.729Z,45
2017-06-06T09:44:52.439Z,25
2017-06-06T09:45:52.159Z,20
2017-06-06T09:46:52.588Z,30
2017-06-06T09:47:52.534Z,30
2017-06-06T09:48:51.930Z,45
2017-06-06T09:49:52.899Z,40
2017-06-06T09:50:52.927Z,25
2017-06-06T09:51:53.157Z,45
2017-06-06T09:52:52.989Z,40
2017-06-06T09:53:52.443Z,30
2017-06-06T09:54:52.722Z,45
2017-06-06T09:55:52.438Z,45
2017-06-06T09:56:52.992Z,30
2017-06-06T09:57:52.492Z,15
2017-06-06T09:58:52.842Z,25
2017-06-06T09:59:52.880Z,25
2017-06-06T10:00:52.907Z,30
2017-06-06T10:01:52.872Z,30
2017-06-06T10:02:52.643Z,30
2017-06-06T10:03:53.293Z,25
2017-06-06T10:04:53.330Z,25
2017-06-06T10:05:52.416Z,25
2017-06-06T10:06:53.007Z,30
2017-06-06T10:07:53.107Z,40
2017-06-06T10:08:52.814Z,50
2017-06-06T10:09:53.475Z,45
2017-06-06T10:10:53.258Z,50
2017-06-06T10:11:53.781Z,50
2017-06-06T10:12:53.556Z,55
2017-06-06T10:13:53.293Z,55
2017-06-06T10:14:53.618Z,35
2017-06-06T10:15:53.022Z,40
2017-06-06T10:16:53.357Z,40
2017-06-06T10:17:53.360Z,45
2017-06-06T10:18:53.733Z,55
2017-06-06T10:19:53.767Z,55
2017-06-06T10:20:53.792Z,55
2017-06-06T10:21:53.504Z,60
2017-06-06T10:22:53.785Z,55
2017-06-06T10:23:53.868Z,65
2017-06-06T10:24:53.912Z,55
2017-06-06T10:25:53.323Z,60
2017-06-06T10:26:53.648Z,40
2017-06-06T10:27:54.232Z,60
2017-06-06T10:28:53.401Z,50
2017-06-06T10:29:53.110Z,55
2017-06-06T10:30:54.082Z,60
2017-06-06T10:31:53.500Z,70
2017-06-06T10:32:54.382Z,70
2017-06-06T10:33:53.887Z,60
2017-06-06T10:34:53.885Z,50
2017-06-06T10:35:54.226Z,50
2017-06-06T10:36:53.944Z,45
2017-06-06T10:37:54.221Z,50
2017-06-06T10:38:54.306Z,60
2017-06-06T10:39:54.030Z,60
2017-06-06T10:40:54.051Z,60
2017-06-06T10:41:53.776Z,60
2017-06-06T10:42:54.372Z,60
2017-06-06T10:43:54.134Z,40
2017-06-06T10:44:54.170Z,45
2017-06-06T10:45:53.887Z,50
2017-06-06T10:46:54.544Z,55
2017-06-06T10:47:53.886Z,75
2017-06-06T10:48:53.976Z,70
2017-06-06T10:49:54.309Z,50
2017-06-06T10:50:54.342Z,70
2017-06-06T10:51:54.367Z,60
2017-06-06T10:52:54.664Z,50
2017-06-06T10:53:54.745Z,55
2017-06-06T10:54:54.134Z,40
2017-06-06T10:55:54.179Z,35
2017-06-06T10:56:54.520Z,50
2017-06-06T10:57:54.753Z,55
2017-06-06T10:58:54.902Z,50
2017-06-06T10:59:54.609Z,60
2017-06-06T11:00:54.955Z,60
2017-06-06T11:01:54.984Z,50
2017-06-06T11:02:54.945Z,50
2017-06-06T11:03:55.029Z,80
2017-06-06T11:04:55.063Z,60
2017-06-06T11:05:54.816Z,90
2017-06-06T11:06:55.124Z,40
2017-06-06T11:07:55.105Z,60
2017-06-06T11:08:55.180Z,70
2017-06-06T11:09:55.207Z,70
2017-06-06T11:10:54.932Z,85
2017-06-06T11:11:54.956Z,65
2017-06-06T11:12:55.547Z,60
2017-06-06T11:13:54.706Z,45
2017-06-06T11:14:55.038Z,40
2017-06-06T11:15:55.390Z,50
2017-06-06T11:16:55.423Z,55
2017-06-06T11:17:55.017Z,55
2017-06-06T11:18:55.157Z,60
2017-06-06T11:19:55.191Z,60
2017-06-06T11:20:55.535Z,65
2017-06-06T11:21:55.256Z,70
2017-06-06T11:22:55.160Z,80
2017-06-06T11:23:55.299Z,110
2017-06-06T11:24:55.649Z,135
2017-06-06T11:25:55.371Z,145
2017-06-06T11:26:55.391Z,125
2017-06-06T11:27:55.677Z,110
2017-06-06T11:28:55.132Z,50
2017-06-06T11:29:55.491Z,105
2017-06-06T11:30:55.559Z,200
2017-06-06T11:31:55.868Z,510
2017-06-06T11:32:55.820Z,170
2017-06-06T11:33:55.589Z,210
2017-06-06T11:34:55.974Z,65
2017-06-06T11:35:56.002Z,70
2017-06-06T11:36:55.388Z,40
2017-06-06T11:37:55.967Z,30
2017-06-06T11:38:55.740Z,30
2017-06-06T11:39:56.092Z,25
2017-06-06T11:40:56.119Z,25
2017-06-06T11:41:56.152Z,35
2017-06-06T11:42:55.584Z,60
2017-06-06T11:43:56.140Z,310
2017-06-06T11:44:56.241Z,235
2017-06-06T11:45:56.263Z,775
2017-06-06T11:46:55.348Z,310
2017-06-06T11:47:56.008Z,110
2017-06-06T11:48:56.292Z,405
2017-06-06T11:49:56.073Z,125
2017-06-06T11:50:55.790Z,685
2017-06-06T11:51:55.809Z,50
2017-06-06T11:52:56.471Z,705
2017-06-06T11:53:56.749Z,50
2017-06-06T11:54:56.534Z,205
2017-06-06T11:55:56.243Z,695
2017-06-06T11:56:56.274Z,675
2017-06-06T11:57:56.312Z,130
2017-06-06T11:58:56.590Z,110
2017-06-06T11:59:56.379Z,360
2017-06-06T12:00:56.090Z,40
2017-06-06T12:01:56.115Z,30
2017-06-06T12:02:56.468Z,35
2017-06-06T12:03:56.380Z,15
2017-06-06T12:04:56.830Z,15
2017-06-06T12:05:56.555Z,15
2017-06-06T12:06:56.276Z,15
2017-06-06T12:07:56.616Z,30
2017-06-06T12:08:56.570Z,45
2017-06-06T12:09:56.678Z,295
2017-06-06T12:10:57.019Z,585
2017-06-06T12:11:57.047Z,155
2017-06-06T12:12:56.772Z,65
2017-06-06T12:13:57.716Z,70
2017-06-06T12:14:56.842Z,55
2017-06-06T12:15:57.177Z,140
2017-06-06T12:16:56.587Z,110
2017-06-06T12:17:57.223Z,115
2017-06-06T12:18:57.517Z,85
2017-06-06T12:19:57.301Z,410
2017-06-06T12:20:57.329Z,535
2017-06-06T12:21:56.731Z,550
2017-06-06T12:22:56.764Z,620
2017-06-06T12:23:57.673Z,365
2017-06-06T12:24:57.451Z,580
2017-06-06T12:25:57.164Z,230
2017-06-06T12:26:57.526Z,675
2017-06-06T12:27:57.269Z,205
2017-06-06T12:28:57.457Z,355
2017-06-06T12:29:57.616Z,775
2017-06-06T12:30:57.004Z,180
2017-06-06T12:31:57.035Z,705
2017-06-06T12:32:57.700Z,735
2017-06-06T12:33:58.049Z,230
2017-06-06T12:34:57.749Z,90
2017-06-06T12:35:57.498Z,80
2017-06-06T12:36:57.823Z,60
2017-06-06T12:37:57.544Z,50
2017-06-06T12:38:57.776Z,40
2017-06-06T12:39:57.601Z,55
2017-06-06T12:40:57.954Z,35
2017-06-06T12:41:57.670Z,1065
2017-06-06T12:42:57.699Z,985
2017-06-06T12:43:57.921Z,1085
2017-06-06T12:44:58.073Z,965
2017-06-06T12:45:58.110Z,815
2017-06-06T12:46:57.822Z,1010
2017-06-06T12:47:57.856Z,255
2017-06-06T12:48:58.441Z,1380
2017-06-06T12:49:57.609Z,1390
2017-06-06T12:50:58.261Z,910
2017-06-06T12:51:58.294Z,670
2017-06-06T12:52:58.018Z,75
2017-06-06T12:53:57.979Z,1125
2017-06-06T12:54:58.398Z,995
2017-06-06T12:55:58.421Z,930
2017-06-06T12:56:58.459Z,895
2017-06-06T12:57:58.499Z,950
2017-06-06T12:58:58.724Z,900
2017-06-06T12:59:57.920Z,525
2017-06-06T13:00:58.273Z,200
2017-06-06T13:01:58.614Z,115
2017-06-06T13:02:58.335Z,130
2017-06-06T13:03:58.941Z,245
2017-06-06T13:04:58.722Z,35
2017-06-06T13:05:58.751Z,220
2017-06-06T13:06:58.470Z,240
2017-06-06T13:07:58.179Z,190
2017-06-06T13:08:59.049Z,185
2017-06-06T13:09:58.586Z,185
2017-06-06T13:10:58.290Z,190
2017-06-06T13:11:58.316Z,180
2017-06-06T13:12:58.984Z,175
2017-06-06T13:13:59.255Z,190
2017-06-06T13:14:59.042Z,190
2017-06-06T13:15:59.076Z,160
2017-06-06T13:16:59.106Z,110
2017-06-06T13:17:58.828Z,70
2017-06-06T13:18:59.424Z,65
2017-06-06T13:19:59.207Z,35
2017-06-06T13:20:58.939Z,30
2017-06-06T13:21:59.280Z,25
2017-06-06T13:22:58.684Z,20
2017-06-06T13:23:59.601Z,20
2017-06-06T13:24:59.364Z,20
2017-06-06T13:25:58.786Z,20
2017-06-06T13:26:59.434Z,20
2017-06-06T13:27:59.458Z,20
2017-06-06T13:28:59.124Z,20
2017-06-06T13:29:58.900Z,25
2017-06-06T13:30:59.254Z,25
2017-06-06T13:31:59.284Z,20
2017-06-06T13:32:58.992Z,15
2017-06-06T13:33:59.286Z,20
2017-06-06T13:34:59.372Z,65
2017-06-06T13:35:59.758Z,135
2017-06-06T13:36:59.434Z,150
2017-06-06T13:37:59.785Z,65
2017-06-06T13:39:00.067Z,100
2017-06-06T13:39:59.533Z,45
2017-06-06T13:40:59.562Z,35
2017-06-06T13:41:59.582Z,70
2017-06-06T13:42:59.940Z,85
2017-06-06T13:43:59.666Z,170
2017-06-06T13:44:59.616Z,125
2017-06-06T13:46:00.029Z,120
2017-06-06T13:46:59.134Z,115
2017-06-06T13:48:00.087Z,115
2017-06-06T13:48:59.811Z,115
2017-06-06T13:49:59.721Z,115
2017-06-06T13:50:59.559Z,110
2017-06-06T13:51:59.902Z,110
2017-06-06T13:53:00.242Z,110
2017-06-06T13:53:59.983Z,140
2017-06-06T13:54:59.935Z,100
2017-06-06T13:56:00.058Z,105
2017-06-06T13:57:00.378Z,65
2017-06-06T13:58:00.084Z,65
2017-06-06T13:59:00.431Z,105
2017-06-06T14:00:00.096Z,130
2017-06-06T14:01:00.503Z,40
2017-06-06T14:02:00.276Z,70
2017-06-06T14:02:59.930Z,70
2017-06-06T14:04:00.279Z,70
2017-06-06T14:05:00.831Z,65
2017-06-06T14:05:59.717Z,50
2017-06-06T14:07:00.694Z,65
2017-06-06T14:08:00.715Z,75
2017-06-06T14:09:00.444Z,105
2017-06-06T14:10:00.980Z,90
2017-06-06T14:11:00.808Z,90
2017-06-06T14:12:00.846Z,90
2017-06-06T14:13:00.583Z,90
2017-06-06T14:14:00.600Z,90
2017-06-06T14:15:01.144Z,90
2017-06-06T14:16:00.657Z,90
2017-06-06T14:17:01.006Z,90
2017-06-06T14:18:00.723Z,60
2017-06-06T14:19:00.452Z,120
2017-06-06T14:20:00.104Z,50
2017-06-06T14:21:01.133Z,60
2017-06-06T14:22:00.854Z,55
2017-06-06T14:23:00.883Z,55
2017-06-06T14:24:00.600Z,40
2017-06-06T14:25:01.511Z,50
2017-06-06T14:26:01.290Z,35
2017-06-06T14:27:01.001Z,45